Time;durP1;ratioP1;P1;durP2;ratioP2;P2;SDS_P1;SDS_P2;PMS_P1;PMS_P2;Temp;Humidity;BMP_temperature;BMP_pressure;BME280_temperature;BME280_humidity;BME280_pressure;Samples;Min_cycle;Max_cycle;Signal;HPM_P1;HPM_P2
2022/10/01 00:07:21;;;;;;;7.28;6.20;;;;;;;22.78;59.60;100158.66;20646356;28;20127;-78
2022/10/01 00:17:23;;;;;;;7.95;6.40;;;;;;;22.79;59.64;100161.16;20628433;28;20042;-79
2022/10/01 00:27:25;;;;;;;8.55;6.07;;;;;;;22.73;59.80;100177.53;20627046;28;20402;-78
2022/10/01 00:37:25;;;;;;;;;;;;;;;22.72;59.35;100178.50;20625813;28;20061;-78
2022/10/01 00:47:35;;;;;;;5.95;5.20;;;;;;;22.71;59.43;100151.25;20627426;28;22134;-78
2022/10/01 00:57:35;;;;;;;6.82;5.63;;;;;;;22.71;59.56;100148.63;20609131;28;20053;-78
2022/10/01 01:07:36;;;;;;;6.53;5.45;;;;;;;22.72;59.76;100154.75;20620619;28;20081;-79
2022/10/01 01:18:08;;;;;;;6.38;5.35;;;;;;;22.69;59.60;100145.28;20619108;28;21501;-79
2022/10/01 01:28:34;;;;;;;;;;;;;;;22.74;59.70;100155.47;20629170;28;20125;-78
2022/10/01 01:38:50;;;;;;;5.32;4.80;;;;;;;22.68;59.59;100177.94;20627819;28;19918;-79
2022/10/01 01:48:52;;;;;;;5.70;4.95;;;;;;;22.64;59.42;100171.25;20637219;28;20037;-79
2022/10/01 01:58:56;;;;;;;5.13;4.63;;;;;;;22.64;59.71;100154.56;20631577;28;20038;-78
2022/10/01 02:09:10;;;;;;;5.00;4.50;;;;;;;22.61;59.48;100153.03;20640541;28;20660;-78
2022/10/01 02:19:25;;;;;;;5.68;4.55;;;;;;;22.62;59.60;100125.69;20643743;28;20046;-78
2022/10/01 02:29:27;;;;;;;5.07;4.55;;;;;;;22.62;59.57;100140.66;20636230;28;22033;-78
2022/10/01 02:39:30;;;;;;;4.57;4.17;;;;;;;22.58;59.63;100155.13;20636562;28;20408;-78
2022/10/01 02:49:31;;;;;;;4.88;4.28;;;;;;;22.60;59.61;100153.19;20631837;28;20042;-78
2022/10/01 02:59:31;;;;;;;4.10;3.70;;;;;;;22.60;59.44;100151.38;20632419;28;20046;-79
2022/10/01 03:09:33;;;;;;;4.72;4.20;;;;;;;22.59;59.92;100157.59;20631538;28;20042;-78
2022/10/01 03:19:34;;;;;;;4.50;4.10;;;;;;;22.59;59.75;100140.94;20636866;28;20045;-78
2022/10/01 03:29:34;;;;;;;4.22;3.83;;;;;;;22.57;59.53;100132.31;20629666;28;20045;-78
2022/10/01 03:39:34;;;;;;;3.90;3.60;;;;;;;22.55;59.63;100157.03;20628278;28;20683;-77
2022/10/01 03:49:35;;;;;;;4.20;3.80;;;;;;;22.54;59.85;100194.97;20631407;28;20066;-78
2022/10/01 03:59:36;;;;;;;4.00;3.45;;;;;;;22.54;59.86;100183.56;20629321;28;20057;-81
2022/10/01 04:09:37;;;;;;;4.15;3.30;;;;;;;22.51;59.68;100139.81;20622096;28;20371;-79
2022/10/01 04:19:37;;;;;;;3.50;3.20;;;;;;;22.51;59.54;100139.81;20627434;28;20057;-77
2022/10/01 04:29:38;;;;;;;3.63;3.33;;;;;;;22.49;59.72;100133.00;20625059;28;20053;-79
2022/10/01 04:39:38;;;;;;;4.25;3.58;;;;;;;22.51;59.60;100141.63;20626828;28;20121;-78
2022/10/01 04:49:38;;;;;;;3.53;3.22;;;;;;;22.50;59.63;100132.88;20629606;28;20405;-78
2022/10/01 04:59:39;;;;;;;3.58;3.28;;;;;;;22.49;59.95;100159.38;20631510;28;20034;-78
2022/10/01 05:09:39;;;;;;;3.40;3.10;;;;;;;22.51;60.31;100146.91;20647506;28;20064;-78
2022/10/01 05:19:39;;;;;;;6.72;3.00;;;;;;;22.45;60.22;100187.84;20648355;28;20143;-78
2022/10/01 05:29:41;;;;;;;3.30;2.85;;;;;;;22.45;60.21;100213.38;20645972;28;20052;-78
2022/10/01 05:39:41;;;;;;;4.07;2.90;;;;;;;22.55;60.63;100190.53;20651475;28;20385;-78
2022/10/01 05:49:43;;;;;;;3.03;2.72;;;;;;;22.58;60.76;100179.69;20647225;28;20073;-78
2022/10/01 05:59:44;;;;;;;8.57;3.30;;;;;;;22.61;60.67;100160.97;20656161;28;20187;-78
2022/10/01 06:09:44;;;;;;;4.43;2.67;;;;;;;22.64;60.42;100167.78;20660158;28;20038;-77
2022/10/01 06:19:45;;;;;;;5.22;2.70;;;;;;;22.63;60.73;100147.63;20595172;28;1144888;-79
2022/10/01 06:29:45;;;;;;;4.68;2.75;;;;;;;22.64;60.45;100120.28;20661957;28;20053;-79
2022/10/01 06:39:46;;;;;;;4.10;3.00;;;;;;;22.66;60.96;100148.19;20675544;28;20038;-78
2022/10/01 06:49:46;;;;;;;5.18;3.00;;;;;;;22.69;61.02;100150.56;20672168;28;20060;-79
2022/10/01 06:59:46;;;;;;;4.22;2.83;;;;;;;22.74;61.00;100144.91;20648149;28;20046;-77
2022/10/01 07:09:47;;;;;;;4.32;3.92;;;;;;;22.77;61.20;100147.25;20654393;28;20499;-78
2022/10/01 07:19:48;;;;;;;7.72;4.10;;;;;;;22.78;61.21;100141.00;20667510;28;20077;-78
2022/10/01 07:29:49;;;;;;;5.57;3.75;;;;;;;22.78;61.04;100134.91;20655229;28;20085;-79
2022/10/01 07:39:49;;;;;;;6.53;3.92;;;;;;;22.76;60.69;100116.53;20636015;28;20038;-82
2022/10/01 07:49:51;;;;;;;6.93;3.55;;;;;;;22.83;60.62;100111.56;20638453;28;20501;-80
2022/10/01 07:59:52;;;;;;;;;;;;;;;22.77;59.79;100122.66;20642920;28;20045;-80
2022/10/01 08:09:52;;;;;;;6.97;5.55;;;;;;;22.38;58.20;100126.03;20635781;28;19936;-82
2022/10/01 08:19:52;;;;;;;5.75;4.30;;;;;;;22.48;57.74;100116.31;20661112;28;20074;-78
2022/10/01 08:29:53;;;;;;;5.00;3.65;;;;;;;22.51;57.94;100131.09;20654631;28;20022;-76
2022/10/01 08:39:55;;;;;;;8.07;4.15;;;;;;;22.45;57.04;100113.13;20658451;28;20056;-76
2022/10/01 08:50:19;;;;;;;4.80;3.17;;;;;;;22.52;58.95;100091.34;20647908;28;20112;-77
2022/10/01 09:00:20;;;;;;;12.88;3.58;;;;;;;22.57;59.18;100076.91;20638881;28;20046;-78
2022/10/01 09:10:44;;;;;;;17.77;4.05;;;;;;;22.58;59.50;100071.50;20643357;28;20744;-76
2022/10/01 09:20:57;;;;;;;8.05;3.35;;;;;;;22.61;59.61;100071.25;20660455;28;20046;-77
2022/10/01 09:31:09;;;;;;;9.38;3.65;;;;;;;22.60;59.95;100079.28;20640322;28;20046;-74
2022/10/01 09:41:11;;;;;;;12.15;4.05;;;;;;;22.60;59.81;100064.28;20657449;28;20391;-74
2022/10/01 09:51:17;;;;;;;9.73;4.30;;;;;;;22.66;59.93;100061.09;20669740;28;20049;-74
2022/10/01 10:01:29;;;;;;;8.02;4.13;;;;;;;22.70;59.81;100048.47;20671581;28;20042;-75
2022/10/01 10:11:31;;;;;;;8.80;4.03;;;;;;;22.79;60.65;100041.53;20627057;28;20047;-75
2022/10/01 10:21:33;;;;;;;;;;;;;;;22.83;61.06;100029.72;20643095;28;20474;-75
2022/10/01 10:31:41;;;;;;;8.23;4.13;;;;;;;22.86;60.97;100014.44;20648526;28;19955;-76
2022/10/01 10:41:46;;;;;;;10.45;4.78;;;;;;;22.92;61.19;100002.47;20638730;28;20050;-79
2022/10/01 10:51:52;;;;;;;11.60;5.18;;;;;;;22.99;61.48;99989.56;20635711;28;20465;-74
2022/10/01 11:01:53;;;;;;;11.82;4.70;;;;;;;23.07;61.95;99970.38;20643815;28;20034;-76
2022/10/01 11:12:45;;;;;;;8.18;4.05;;;;;;;23.16;61.70;99970.38;20613522;28;20137;-78
2022/10/01 11:22:51;;;;;;;9.68;4.57;;;;;;;23.24;61.22;99943.28;20543680;28;20046;-78
2022/10/01 11:33:24;;;;;;;31.35;8.65;;;;;;;23.43;61.25;99909.84;20659518;28;20038;-78
2022/10/01 11:43:36;;;;;;;14.93;8.82;;;;;;;22.96;58.00;99906.19;20658676;28;20069;-78
2022/10/01 11:53:49;;;;;;;28.42;12.50;;;;;;;23.49;64.01;99882.84;20615038;28;20057;-75
2022/10/01 12:03:53;;;;;;;24.77;14.10;;;;;;;23.77;64.96;99875.72;20592117;28;20129;-75
2022/10/01 12:14:05;;;;;;;30.75;13.55;;;;;;;23.81;64.46;99869.16;20604340;28;20042;-75
2022/10/01 12:24:31;;;;;;;33.42;11.63;;;;;;;23.73;63.29;99849.72;20577748;28;20137;-74
2022/10/01 12:35:01;;;;;;;8.52;5.55;;;;;;;23.62;59.14;99841.03;20577197;28;20050;-74
2022/10/01 12:45:30;;;;;;;8.25;4.03;;;;;;;23.40;57.01;99849.34;20634655;28;20073;-75
2022/10/01 12:55:55;;;;;;;6.63;3.22;;;;;;;23.19;56.80;99853.06;20654365;28;20048;-76
2022/10/01 13:06:11;;;;;;;4.93;2.83;;;;;;;23.03;55.80;99820.16;20645950;28;20078;-75
2022/10/01 13:16:20;;;;;;;6.65;2.78;;;;;;;23.23;56.48;99796.34;20653192;28;20068;-75
2022/10/01 13:26:41;;;;;;;5.25;2.53;;;;;;;23.30;56.61;99793.91;20656569;28;20053;-75
2022/10/01 13:36:42;;;;;;;6.50;2.38;;;;;;;23.34;56.96;99776.81;20659702;28;22497;-75
2022/10/01 13:47:04;;;;;;;4.93;2.50;;;;;;;22.95;54.59;99758.47;20658845;28;20045;-76
2022/10/01 13:57:21;;;;;;;3.80;2.10;;;;;;;23.11;55.80;99750.75;20657219;28;20072;-75
2022/10/01 14:07:30;;;;;;;3.58;2.20;;;;;;;23.18;56.65;99740.47;20639912;28;20169;-77
2022/10/01 14:17:32;;;;;;;4.00;2.50;;;;;;;23.30;58.17;99746.38;20625246;28;20137;-77
2022/10/01 14:27:45;;;;;;;10.43;3.00;;;;;;;23.25;58.46;99751.28;20656331;28;20073;-77
2022/10/01 14:37:46;;;;;;;6.35;3.33;;;;;;;23.29;58.93;99747.34;20627863;28;20049;-77
2022/10/01 14:47:48;;;;;;;9.45;4.30;;;;;;;23.28;58.96;99738.59;20670791;28;20053;-75
2022/10/01 14:57:52;;;;;;;16.73;5.40;;;;;;;23.13;58.30;99721.56;20676892;28;20136;-75
2022/10/01 15:07:52;;;;;;;10.07;5.45;;;;;;;23.15;58.22;99714.31;20662730;28;20092;-75
2022/10/01 15:17:53;;;;;;;12.43;5.80;;;;;;;23.14;57.25;99732.00;20663755;28;20046;-77
2022/10/01 15:27:55;;;;;;;10.05;7.10;;;;;;;23.03;57.56;99751.50;20665571;28;20288;-75
2022/10/01 15:37:59;;;;;;;12.07;6.40;;;;;;;23.03;57.78;99766.50;20670025;28;20041;-75
2022/10/01 15:47:59;;;;;;;9.93;5.65;;;;;;;23.04;58.28;99765.53;20668154;28;20050;-74
2022/10/01 15:58:09;;;;;;;18.55;5.43;;;;;;;23.03;58.09;99759.44;20656845;28;20034;-76
2022/10/01 16:08:20;;;;;;;7.93;5.20;;;;;;;23.03;58.04;99762.06;20652978;28;20046;-75
2022/10/01 16:18:31;;;;;;;9.55;4.53;;;;;;;23.02;57.98;99765.69;20664087;28;20060;-75
2022/10/01 16:28:33;;;;;;;6.23;3.90;;;;;;;23.00;57.23;99769.44;20666498;28;20054;-75
2022/10/01 16:38:34;;;;;;;6.32;3.40;;;;;;;22.95;57.31;99769.88;20653671;28;20104;-74
2022/10/01 16:48:34;;;;;;;10.55;3.05;;;;;;;22.99;56.02;99786.25;20648025;28;20382;-75
2022/10/01 16:58:34;;;;;;;5.85;2.78;;;;;;;22.93;55.51;99777.09;20635750;28;20049;-75
2022/10/01 17:08:37;;;;;;;7.55;2.50;;;;;;;22.94;55.15;99768.22;20661407;28;20728;-75
2022/10/01 17:18:37;;;;;;;;;;;;;;;22.97;54.67;99772.38;20644997;28;20046;-76
2022/10/01 17:28:38;;;;;;;5.00;1.90;;;;;;;22.95;53.99;99771.66;20648748;28;20004;-76
2022/10/01 17:38:39;;;;;;;9.38;1.90;;;;;;;22.96;53.13;99771.53;20658243;28;20046;-74
2022/10/01 17:48:40;;;;;;;5.15;2.10;;;;;;;23.01;53.71;99774.56;20655031;28;20065;-75
2022/10/01 17:58:41;;;;;;;5.80;2.90;;;;;;;23.10;55.45;99785.25;20646150;28;20042;-76
2022/10/01 18:08:42;;;;;;;9.85;3.47;;;;;;;23.16;54.42;99784.66;20677711;28;20057;-76
2022/10/01 18:18:43;;;;;;;4.88;2.78;;;;;;;23.18;54.45;99780.09;20663680;28;20046;-76
2022/10/01 18:28:44;;;;;;;12.10;3.20;;;;;;;23.24;54.52;99810.34;20657148;28;20141;-78
2022/10/01 18:38:48;;;;;;;5.70;4.18;;;;;;;23.30;54.29;99836.19;20649472;28;20057;-76
2022/10/01 18:49:06;;;;;;;14.68;4.90;;;;;;;23.53;58.28;99860.41;20649098;28;20042;-74
2022/10/01 18:59:20;;;;;;;13.38;4.65;;;;;;;23.64;59.11;99856.72;20677974;28;20038;-76
2022/10/01 19:09:28;;;;;;;19.90;4.55;;;;;;;23.78;59.76;99866.81;20643919;28;20117;-76
2022/10/01 19:20:04;;;;;;;18.65;4.60;;;;;;;23.86;60.44;99871.34;20657549;28;20138;-75
2022/10/01 19:30:14;;;;;;;9.55;4.45;;;;;;;23.81;59.88;99868.31;20646848;28;20045;-76
2022/10/01 19:40:26;;;;;;;14.35;4.15;;;;;;;23.90;59.69;99877.16;20644055;28;20049;-75
2022/10/01 19:50:32;;;;;;;14.73;4.63;;;;;;;23.93;59.87;99882.19;20643144;28;20509;-76
2022/10/01 20:00:33;;;;;;;17.65;5.22;;;;;;;23.96;59.25;99889.81;20666824;28;20184;-74
2022/10/01 20:10:42;;;;;;;14.63;4.30;;;;;;;23.87;59.54;99902.09;20654887;28;20535;-75
2022/10/01 20:21:13;;;;;;;8.40;4.55;;;;;;;23.81;59.99;99902.69;20673204;28;20145;-75
2022/10/01 20:31:33;;;;;;;10.75;4.20;;;;;;;23.77;59.91;99907.44;20629887;28;20433;-75
2022/10/01 20:41:43;;;;;;;14.35;4.40;;;;;;;23.74;59.92;99915.69;20615831;28;20045;-74
2022/10/01 20:51:52;;;;;;;13.48;4.50;;;;;;;23.63;60.31;99929.91;20609079;28;20038;-78
2022/10/01 21:02:23;;;;;;;12.13;4.70;;;;;;;23.60;60.52;99953.16;20629289;28;20042;-78
2022/10/01 21:12:34;;;;;;;10.55;4.78;;;;;;;23.53;60.42;99968.75;20642027;28;20050;-79
2022/10/01 21:22:56;;;;;;;10.33;4.07;;;;;;;23.47;60.43;99978.13;20642448;28;20397;-79
2022/10/01 21:33:18;;;;;;;7.60;4.20;;;;;;;23.46;60.55;99988.81;20624403;28;21397;-78
2022/10/01 21:43:41;;;;;;;7.00;3.77;;;;;;;23.43;60.28;100010.25;20628858;28;20049;-79
2022/10/01 21:54:37;;;;;;;6.82;3.85;;;;;;;23.38;60.18;99997.47;20629361;28;21974;-79
2022/10/01 22:04:51;;;;;;;7.95;3.75;;;;;;;23.34;60.21;99993.44;20635141;28;20401;-78
2022/10/01 22:14:54;;;;;;;8.05;3.50;;;;;;;23.30;60.22;99995.53;20663513;28;20109;-79
2022/10/01 22:24:58;;;;;;;4.90;3.15;;;;;;;23.28;60.38;99991.38;20653354;28;20046;-78
2022/10/01 22:35:05;;;;;;;4.25;3.20;;;;;;;23.25;60.27;99989.00;20646393;28;20095;-79
2022/10/01 22:45:15;;;;;;;3.58;3.10;;;;;;;23.23;60.20;100012.06;20643096;28;20041;-79
2022/10/01 22:55:42;;;;;;;5.90;3.33;;;;;;;23.21;60.34;100016.69;20644107;28;20244;-78
2022/10/01 23:06:09;;;;;;;3.78;2.90;;;;;;;23.15;60.31;100025.97;20654311;28;20070;-78
2022/10/01 23:16:38;;;;;;;4.65;3.30;;;;;;;23.16;60.07;100027.63;20657666;28;20045;-78
2022/10/01 23:27:02;;;;;;;5.18;2.78;;;;;;;23.13;60.15;100014.69;20651549;28;20114;-78
2022/10/01 23:37:33;;;;;;;3.88;3.00;;;;;;;23.06;59.81;100024.16;20704422;28;20042;-80
2022/10/01 23:47:59;;;;;;;6.25;2.88;;;;;;;23.03;59.72;100020.84;20659440;28;20046;-80
2022/10/01 23:58:11;;;;;;;3.75;2.90;;;;;;;23.00;59.77;100046.69;20645549;28;20049;-80
